Bei Facebook empfehlenBei Twitter postenGoogle plusPinterest

Das Wetter im Erzgebirge am 16.04.2016

Wetter und Klima am 16.04.2016 Holzhau im Erzgebirge (630m ü.NN)
Letzte gemessene Temperatur und Uhrzeit der Messung23:45:00 Uhr3.40 °C
Temperatur (Maximum / Höchstwert) und Uhrzeit der Messung17:00:00 Uhr12.70 °C
Temperatur (Minimum / Tiefstwert) und Uhrzeit der Messung23:45:003.40 °C
Errechneter Absolutwert der Temperaturschwankungen zwischen Tmin und Tmax des Tages9.30 K
Errechnete Tagesmitteltemperatur8.38854 °C
Gesamt - Niederschlag des Tages (in flüssiger Form)0.00 Liter / m²
Luftdruck (Maximum / Höchstwert) und Zeitpunkt der Messung21:30:00 Uhr1003.30 hPa
Luftdruck (Minimum / Tiefstwert) und Zeitpunkt der Messung11:00:00 Uhr1000.60 hPa
Errechneter Absolutwert der Luftdruckschwankungen des Tages2.70 hPa
Höchste gemessene Windgeschwindigkeit und Uhrzeit der Messung23:45:00 Uhr0.00 km/h
Errechnete Windhäufigkeit in Relation zu den Messwerten des Tages0.00000 %
Niedrigste Windkühle (Windchill) und Zeitpunkt der Messung23:45:00 Uhr3.40 °C
Taupunkt (Maximum / Höchstwert) und Uhrzeit der Messung14:15:00 Uhr10.00 °C
Taupunkt (Minimum / Tiefstwert) und Uhrzeit der Messung23:45:001.90 °C
Anzahl der automatisch eingelesenen Messwerte 96

Detaillierte Wetter- und Klima- Messwerte für den 16.04.2016 in Holzhau im Erzgebirge (630m ü.NN)
ZeitTemperaturLuftdruckRel. LuftfeuchteWindWindrichtungWindchillTaupunktNiederschlag l/m²
23:45:003.40 °C1001.70 hPa90.00 %1.90 °C 
23:30:003.80 °C1001.80 hPa89.00 %2.20 °C 
23:15:003.80 °C1001.80 hPa89.00 %2.20 °C 
23:00:003.60 °C1002.00 hPa89.00 %2.00 °C 
22:45:004.10 °C1001.90 hPa88.00 %2.30 °C 
22:30:004.70 °C1002.50 hPa88.00 %2.90 °C 
22:15:004.90 °C1002.60 hPa88.00 %3.10 °C 
22:00:004.90 °C1002.90 hPa88.00 %3.10 °C 
21:45:004.90 °C1003.20 hPa87.00 %2.90 °C 
21:30:005.20 °C1003.30 hPa86.00 %3.10 °C 
21:15:005.50 °C1003.10 hPa86.00 %3.30 °C 
21:00:005.60 °C1002.50 hPa85.00 %3.30 °C 
20:45:005.60 °C1002.60 hPa84.00 %3.10 °C 
20:30:005.90 °C1002.60 hPa83.00 %3.20 °C 
20:15:006.40 °C1002.40 hPa82.00 %3.60 °C 
20:00:007.00 °C1002.50 hPa81.00 %4.00 °C 
19:45:007.80 °C1002.30 hPa80.00 %4.60 °C 
19:30:008.50 °C1002.20 hPa79.00 %5.10 °C 
19:15:008.90 °C1002.20 hPa79.00 %5.50 °C 
19:00:009.50 °C1002.50 hPa78.00 %5.90 °C 
18:45:0010.20 °C1002.20 hPa77.00 %6.40 °C 
18:30:0010.80 °C1002.10 hPa77.00 %6.90 °C 
18:15:0011.30 °C1001.90 hPa76.00 %7.20 °C 
18:00:0011.80 °C1001.70 hPa76.00 %7.70 °C 
17:45:0012.20 °C1001.70 hPa76.00 %8.10 °C 
17:30:0012.30 °C1001.70 hPa76.00 %8.20 °C 
17:15:0012.60 °C1001.70 hPa75.00 %8.30 °C 
17:00:0012.70 °C1001.60 hPa76.00 %8.60 °C 
16:45:0012.50 °C1001.70 hPa77.00 %8.60 °C 
16:30:0011.90 °C1001.60 hPa78.00 %8.20 °C 
16:15:0011.50 °C1001.80 hPa78.00 %7.80 °C 
16:00:0011.60 °C1001.80 hPa77.00 %7.70 °C 
15:45:0011.90 °C1002.00 hPa76.00 %7.80 °C 
15:30:0012.10 °C1002.20 hPa76.00 %8.00 °C 
15:15:0012.10 °C1002.10 hPa76.00 %8.00 °C 
15:00:0011.90 °C1002.00 hPa78.00 %8.20 °C 
14:45:0012.70 °C1001.80 hPa80.00 %9.30 °C 
14:30:0012.50 °C1001.70 hPa84.00 %9.90 °C 
14:15:0012.10 °C1001.70 hPa87.00 %10.00 °C 
14:00:0010.70 °C1001.70 hPa87.00 %8.60 °C 
13:45:0010.10 °C1001.70 hPa86.00 %7.90 °C 
13:30:0010.10 °C1001.80 hPa85.00 %7.70 °C 
13:15:0010.60 °C1001.60 hPa84.00 %8.00 °C 
13:00:0010.90 °C1001.60 hPa84.00 %8.30 °C 
12:45:0010.80 °C1001.30 hPa86.00 %8.60 °C 
12:30:0010.20 °C1001.30 hPa86.00 %8.00 °C 
12:15:0010.10 °C1001.20 hPa86.00 %7.90 °C 
12:00:009.90 °C1000.90 hPa88.00 %8.00 °C 
11:45:0010.10 °C1000.80 hPa87.00 %8.00 °C 
11:30:0010.60 °C1000.80 hPa88.00 %8.70 °C 
11:15:0010.90 °C1000.70 hPa88.00 %9.00 °C 
11:00:0010.80 °C1000.60 hPa90.00 %9.20 °C 
10:45:009.90 °C1000.80 hPa90.00 %8.30 °C 
10:30:008.90 °C1000.90 hPa89.00 %7.20 °C 
10:15:008.90 °C1000.80 hPa89.00 %7.20 °C 
10:00:008.90 °C1000.80 hPa89.00 %7.20 °C 
09:45:008.70 °C1000.60 hPa89.00 %7.00 °C 
09:30:008.50 °C1000.80 hPa88.00 %6.60 °C 
09:15:009.00 °C1000.60 hPa87.00 %7.00 °C 
09:00:009.30 °C1000.90 hPa88.00 %7.40 °C 
08:45:009.80 °C1001.20 hPa88.00 %7.90 °C 
08:30:0010.40 °C1001.20 hPa89.00 %8.70 °C 
08:15:0010.10 °C1001.40 hPa90.00 %8.50 °C 
08:00:009.60 °C1001.40 hPa90.00 %8.00 °C 
07:45:009.90 °C1001.50 hPa91.00 %8.50 °C 
07:30:009.60 °C1001.50 hPa92.00 %8.40 °C 
07:15:009.10 °C1000.80 hPa93.00 %8.00 °C 
07:00:008.20 °C1001.10 hPa93.00 %7.10 °C 
06:45:007.90 °C1001.30 hPa93.00 %6.80 °C 
06:30:007.40 °C1001.50 hPa93.00 %6.30 °C 
06:15:007.20 °C1001.50 hPa93.00 %6.10 °C 
06:00:007.10 °C1001.60 hPa93.00 %6.00 °C 
05:45:006.90 °C1001.50 hPa93.00 %5.80 °C 
05:30:006.80 °C1001.50 hPa93.00 %5.70 °C 
05:15:006.60 °C1001.70 hPa92.00 %5.40 °C 
05:00:006.50 °C1001.60 hPa92.00 %5.30 °C 
04:45:006.50 °C1001.50 hPa92.00 %5.30 °C 
04:30:006.20 °C1001.50 hPa92.00 %5.00 °C 
04:15:005.90 °C1001.60 hPa92.00 %4.70 °C 
04:00:005.90 °C1001.60 hPa92.00 %4.70 °C 
03:45:006.10 °C1001.60 hPa91.00 %4.70 °C 
03:30:006.30 °C1001.80 hPa92.00 %5.10 °C 
03:15:006.10 °C1002.10 hPa91.00 %4.70 °C 
03:00:005.60 °C1002.30 hPa91.00 %4.20 °C 
02:45:005.60 °C1002.30 hPa91.00 %4.20 °C 
02:30:005.90 °C1002.20 hPa91.00 %4.50 °C 
02:15:006.10 °C1002.20 hPa91.00 %4.70 °C 
02:00:005.70 °C1002.20 hPa91.00 %4.30 °C 
01:45:005.80 °C1002.30 hPa90.00 %4.30 °C 
01:30:006.40 °C1002.40 hPa91.00 %5.00 °C 
01:15:006.60 °C1002.50 hPa91.00 %5.20 °C 
01:00:006.60 °C1002.60 hPa91.00 %5.20 °C 
00:45:006.60 °C1002.70 hPa91.00 %5.20 °C 
00:30:006.60 °C1002.70 hPa91.00 %5.20 °C 
00:15:006.50 °C1003.00 hPa91.00 %5.10 °C 
00:00:006.60 °C1003.10 hPa91.00 %5.20 °C 

Permanenter Link zu dieser Seite: Wetter im Erzgebirge am 16.04.2016
Performance-Info: Die Erstellung der Seite / Statistik(en) / Tabelle(n) erforderte 5 Datenbankserver-Abfrage(n) und dauerte 100 Millisekunden. (Dieser Messwert ist von der Gesamt-Auslastung des Servers abhängig.)
Erzgebirge - Wetter | Erzgebirge - Wetter (Mobilgeräte) | Komplette Klimadatenbank